Timeline UpdatesTrip UpdatesNews PostsPvt PostsTravel TipsAdmin PostsConv PostsFollowed PostsChat RequestsBlog PostsPNR Posts

Disclaimer
Search
 
 
Thu Jul 31, 2014 04:47:47 ISTHomeTrainsΣChainsAtlasPNRForumGalleryNewsFAQTripsMembersLoginFeedback
No Recent News for this Train
Other Trains in the News **new
Latest...
WEF 21-7-2014 Two GN coaches are removed and One HA, One SL attached.
Thu Jul 17, 2014 (07:46AM)
⇐ Return Journey: Train# 15273

15274/Satyagraha Express

Nov 06 2013 (10:32PM)
Change Departure Station:
Change Arrival Station:
Post a Train Travel TipPost a Train Travel Tip **new
Post a Comment/Question/Picture/VideoPost a Comment/Question/Picture/Video
Pantry/Catering
✕ NO Pantry Car
✓ Catering Avbl
No dedicated official catering.
RSA - Rake Sharing
Rake/Coach Composition
SLR-GN-GN-GN-GN-GN-HA1-B1-B2-S1-S2-S3-S4-S5-S6-GN-GN-GN-GN-GN-SLR-Loco=21 Coach Train from 21 July.
Loco
WDM - 3A TKD
News    PNR    Forum    Time-Table    Availability    Fare Chart    Map    Arr/Dep History    Trips    Gallery    ΣChains    X/O    Timeline    
Travel Time: 23h 30m    45 halts    Distance: 962 km    Avg Speed: 40 km/hr
Type: Mail/Express
Zone: ECR/East Central
Departs @ 17:15 (Avg 8m late)
Platform# 12
SMTWTFS
Old Delhi Junction/DLI 
Arrives @ 16:45 +1 night (Avg 46m late)
Platform# ???
SMTWTFS
Raxaul Junction/RXL 

45 halts. 158 intermediate Stations between Old Delhi Junction and Raxaul Junction

Show ALL intermediate Stations  Show Old Time-Table

#CodeStation NameX/OArrivesAvgDepartsAvgHaltPFDay#KmSpeedElevZoneAddress
1DLI»Old Delhi Junction (16)»  -17:15+81210.021219mNRNear Chandni Chowk Metro Station, Delhi NCT
2DSAShahdara Junction (4)  17:33+1717:35+182m216.352212mNRCircular Rd, Delhi NCT
3SBBSahibabad Junction (5)X  17:43+1317:45+132m1113.220209mNRGhaziabad, Uttar Pradesh
4GZBGhaziabad Junction (6)  18:05+1018:08+113m1119.961217mNRGhaziabad, Uttar Pradesh
5PKWPilkhua (3)  18:33+3118:35+312m--145.539218mNRPilkhuwa, Uttar Pradesh
6HPUHapur Junction (4)  18:52+2718:54+282m--156.685214mNRHapur Jn., Uttar Pradesh
7GMSGarhmuktesar (3)X  19:15+3719:17+392m1186.460218mNRGarhmukteshwar, Uttar Pradesh
8GJLGajraula Junction (4)  19:38+4419:40+452m11107.368211mNRGujraula, Uttar Pradesh
9AMROAmroha (3)  20:00+4220:02+422m11130.138217mNRAmroha, Uttar Pradesh
10MBMoradabad Junction (7)X  20:50+3021:00+3310m11160.651201mNRMoradabad, Uttar Pradesh
11RMURampur Junction (3)XO  21:32+4121:34+452m--1187.926190mNRRampur, Uttar Pradesh
12MILMilak  22:27-22:29-2m--1211.041180mNRMilak, Uttar Pradesh
13BEBareilly Junction (4)X  23:27+1223:35+128m11250.973174mNRBareilly, Uttar Pradesh
14BLPUBilpurX  00:04+2200:06+232m--2286.450161mNRFatehganj, Uttar Pradesh
15SPNShahjahanpur Junction (3)XO  00:48+1600:53+165m--2321.455156mNRShahjahanpur, Uttar Pradesh
16ROZARoza Junction (4)  01:01+2201:03+222m--2328.756156mNRShahjahanpur, Uttar Pradesh
17SPCSitapur City Junction  02:28+1802:38+1410m--2408.010140mNRSitapur, Uttar Pradesh
18SCCSitapur Cantt. (2)  03:02+2403:10+258m--2412.269141mNRSitapur, Uttar Pradesh
19BVNBiswan  03:40+3403:42+352m--2446.773133mNERBiswan, Uttar Pradesh
20MMBMahmudabad Avadh  04:03+4004:05+402m--2472.364131mNERMahmudabad, Uttar Pradesh
21TSFTahsil Fatehpur  04:20+4104:22+422m--2488.239124mNERFatehpur, Uttar Pradesh
22BUWBurhwal Junction (3)X  04:55+2905:00+315m--2509.754119mNERBarabanki, Uttar Pradesh
23JLDJarwal Road (2)X  05:18+3505:20+392m--2525.857112mNERBehraich, Uttar Pradesh
24CLJColonelGanj (2)X  05:38+4305:40+462m22543.035108mNERGonda, Uttar Pradesh
25GDGonda Junction (3)X  06:30+3006:35+345m22572.073110mNERGonda 271001, Uttar Pradesh
26MURMankapur Junction (5)  06:58+4107:00+422m--2599.865104mNERDistrict Gonda, Uttar Pradesh
27MSWMaskanwa (2)  07:13+4507:15+472m--2613.9-103mNERChhapaiya Rd, Uttar Pradesh
28BVBabhnan (2)X  07:20+5707:22+1:002m22629.649101mNERDistrict- Basti, Uttar Pradesh
29BSTBasti (4)  08:00+4908:05+495m--2660.46390mNERBasti 272001, Uttar Pradesh
30KLDKhalilabad (3)X  08:33+5608:35+572m--2689.92086mNERKhalilabad- 272175, Uttar Pradesh
31GKPGorakhpur Junction (10)  10:15+1010:25+1510m--2723.83784mNERGorakhpur 273001, Uttar Pradesh
32PPCPipraich  10:56+3110:58+322m--2742.83185mNERGorakhpur Bypass, Uttar Pradesh
33CPJKaptanganj JunctionX  11:36+3911:41+235m--2762.55689mNERCaptainganj, Uttar Pradesh
34GHGhughuli  11:57+2211:59+232m--2777.45892mNERGhughli Bazar, Uttar Pradesh
35SBZSiswa BazarX  12:11+1612:13+172m--2789.04194mNERSiswa Bazar, Uttar Pradesh
36KZAKhada12:34+3512:36+352m--2803.32498mNERKhadda Katai Bharpurva Bandh, Uttar Pradesh
37PNYAPaniahwa (2)X  12:53+2812:55+352m--2809.94696mNERPaniyahawa Railway Station, Uttar Pradesh
38BUGBagaha (2)  13:24+4413:26+282m--2832.27593mECRBagaha, Bihar
39BRUBhairoganj  13:40+4213:42+422m--2849.749100mECRBhairoganj, Bihar
40HIRHarinagar  13:52+4413:54+452m--2857.83697mECRRamnagar, Bihar
41NKENarkatiaganj Junction (3)  14:20+4014:25+435m--2873.35789mECRNarkatiaganj, Bihar
42CAIChanpatiaX  14:46+4614:48+492m--2893.25180mECRSikta-Mainatad Rd, Bihar
43BTHBettiah (2)  15:08+3615:10+362m--2910.06679mECRBettiah, Bihar
44MJLMajhowlia  15:19+4715:21+472m--2919.94676mECRVikash Village, Bihar
45SGLSagauli (3)  15:38+3915:40+402m--2932.85073mECRSugauli, Bihar
46RGHRamgarhwa (1)X  15:58+4316:00+442m12947.81975mECRRamgarhwa, Bihar
47RXL•Raxaul Junction (5)•  16:45+46---2962.0-88mECREast Champaran, Bihar
Scroll to Top
Scroll to Bottom